Time;durP1;ratioP1;P1;durP2;ratioP2;P2;SDS_P1;SDS_P2;PMS_P1;PMS_P2;Temp;Humidity;BMP_temperature;BMP_pressure;BME280_temperature;BME280_humidity;BME280_pressure;Samples;Min_cycle;Max_cycle;Signal;HPM_P1;HPM_P2
2022/06/04 00:01:42;;;;;;;3.22;1.87;;;21.80;51.80;;;;;;2340618;54;21017;-71
2022/06/04 00:04:11;;;;;;;3.25;2.10;;;21.70;51.70;;;;;;2408805;53;21067;-71
2022/06/04 00:06:37;;;;;;;4.50;1.98;;;21.70;52.00;;;;;;2341237;54;20948;-71
2022/06/04 00:09:06;;;;;;;3.50;1.92;;;21.70;52.00;;;;;;2341736;54;21083;-71
2022/06/04 00:17:05;;;;;;;3.12;1.70;;;21.70;52.10;;;;;;2346564;53;21306;-70
2022/06/04 00:19:32;;;;;;;3.10;1.92;;;21.70;52.10;;;;;;2342266;53;21071;-70
2022/06/04 00:21:58;;;;;;;2.70;1.67;;;21.60;52.10;;;;;;2346625;53;20997;-70
2022/06/04 00:24:24;;;;;;;2.55;1.52;;;21.60;52.10;;;;;;2342580;53;21018;-71
2022/06/04 00:26:50;;;;;;;3.08;1.83;;;21.60;52.20;;;;;;2341631;54;20973;-73
2022/06/04 00:29:17;;;;;;;5.72;1.87;;;21.60;52.20;;;;;;2413520;53;21842;-71
2022/06/04 00:31:43;;;;;;;2.90;1.90;;;21.60;52.10;;;;;;2442737;53;20939;-74
2022/06/04 00:34:10;;;;;;;3.62;2.33;;;21.60;52.20;;;;;;2344756;54;20936;-71
2022/06/04 00:36:39;;;;;;;3.55;2.25;;;21.50;52.30;;;;;;2347989;53;21007;-72
2022/06/04 00:39:05;;;;;;;2.53;1.52;;;21.50;52.60;;;;;;2443162;53;20926;-73
2022/06/04 00:42:02;;;;;;;3.08;1.98;;;21.50;52.40;;;;;;2347276;53;20921;-73
2022/06/04 00:46:19;;;;;;;4.75;1.90;;;21.50;52.90;;;;;;2341306;53;21014;-73
2022/06/04 00:48:45;;;;;;;3.28;1.60;;;21.50;52.70;;;;;;2346770;53;21006;-71
2022/06/04 00:51:12;;;;;;;3.00;1.70;;;21.40;52.20;;;;;;2345444;53;20923;-71
2022/06/04 00:53:38;;;;;;;3.00;1.87;;;21.40;52.20;;;;;;2590928;53;20919;-71
2022/06/04 00:57:59;;;;;;;3.42;1.85;;;21.40;52.30;;;;;;2587254;53;20959;-71
2022/06/04 01:00:40;;;;;;;2.85;1.52;;;21.40;52.70;;;;;;2348079;53;20995;-71
2022/06/04 01:06:39;;;;;;;3.00;1.80;;;21.40;52.60;;;;;;2590507;53;21601;-71
2022/06/04 01:09:43;;;;;;;2.65;1.52;;;21.30;52.50;;;;;;2340967;54;20959;-71
2022/06/04 01:12:38;;;;;;;3.45;1.87;;;21.30;52.70;;;;;;2587747;53;21902;-73
2022/06/04 01:15:27;;;;;;;3.12;1.87;;;21.30;53.00;;;;;;2341932;53;20983;-73
2022/06/04 01:19:39;;;;;;;3.60;1.90;;;21.20;52.90;;;;;;2341825;54;20972;-72
2022/06/04 01:22:48;;;;;;;2.90;1.60;;;21.20;52.90;;;;;;2341374;54;21028;-72
2022/06/04 01:27:06;;;;;;;2.85;1.95;;;21.20;52.70;;;;;;2587621;53;20989;-72
2022/06/04 01:31:16;;;;;;;3.17;1.80;;;21.20;53.10;;;;;;2341395;54;21470;-71
2022/06/04 01:33:46;;;;;;;3.53;1.80;;;21.20;53.40;;;;;;2437569;53;20949;-71
2022/06/04 01:36:19;;;;;;;4.35;2.47;;;21.10;52.70;;;;;;2341394;54;21366;-71
2022/06/04 01:39:05;;;;;;;3.55;2.20;;;21.10;52.80;;;;;;2552279;53;21905;-71
2022/06/04 01:41:37;;;;;;;3.05;2.00;;;21.10;53.40;;;;;;2588599;53;20899;-72
2022/06/04 01:44:13;;;;;;;3.17;2.00;;;21.10;53.20;;;;;;2482784;53;20928;-72
2022/06/04 01:46:52;;;;;;;3.22;2.00;;;21.10;53.30;;;;;;2341109;54;21577;-70
2022/06/04 01:49:28;;;;;;;3.20;1.80;;;21.10;53.30;;;;;;2404917;53;20952;-72
2022/06/04 01:51:58;;;;;;;2.95;1.95;;;21.10;53.20;;;;;;2343366;54;21628;-71
2022/06/04 01:54:30;;;;;;;3.47;2.22;;;21.10;53.20;;;;;;2396317;53;21490;-71
2022/06/04 01:57:08;;;;;;;;;;;21.00;53.20;;;;;;2349520;53;20899;-71
2022/06/04 01:59:51;;;;;;;3.40;1.70;;;21.10;53.40;;;;;;2346650;53;20148;-70
2022/06/04 02:02:26;;;;;;;3.00;1.90;;;21.10;53.40;;;;;;2344946;53;21387;-71
2022/06/04 02:04:56;;;;;;;3.15;2.05;;;21.10;53.20;;;;;;2346478;53;21554;-71
2022/06/04 02:07:32;;;;;;;4.00;2.10;;;21.00;53.30;;;;;;2348133;53;20998;-72
2022/06/04 02:10:13;;;;;;;5.18;2.28;;;21.00;53.50;;;;;;2342248;53;20992;-71
2022/06/04 02:12:42;;;;;;;3.30;2.25;;;21.00;53.80;;;;;;2353157;53;21006;-72
2022/06/04 02:15:12;;;;;;;3.42;2.15;;;21.00;53.70;;;;;;2349347;53;20948;-71
2022/06/04 02:17:40;;;;;;;3.62;2.55;;;21.00;53.70;;;;;;2591054;53;21321;-74
2022/06/04 02:20:07;;;;;;;3.92;2.40;;;21.00;53.90;;;;;;2352233;53;20947;-71
2022/06/04 02:22:33;;;;;;;3.35;2.20;;;21.00;53.90;;;;;;2372376;53;21067;-71
2022/06/04 02:25:03;;;;;;;4.03;2.53;;;21.00;53.90;;;;;;2341265;54;20934;-73
2022/06/04 02:27:29;;;;;;;3.97;2.30;;;21.10;54.40;;;;;;2341490;54;21009;-72
2022/06/04 02:29:56;;;;;;;3.10;2.20;;;21.10;54.30;;;;;;2341540;54;21015;-72
2022/06/04 02:32:34;;;;;;;3.05;1.85;;;21.10;54.30;;;;;;2341534;54;20957;-74
2022/06/04 02:36:55;;;;;;;3.30;2.40;;;21.10;54.30;;;;;;2341523;54;20987;-71
2022/06/04 02:41:16;;;;;;;3.53;1.87;;;21.10;54.40;;;;;;2341329;54;20940;-71
2022/06/04 02:43:53;;;;;;;2.67;1.65;;;21.10;54.50;;;;;;2340531;53;20956;-72
2022/06/04 02:46:35;;;;;;;3.58;1.80;;;21.10;54.30;;;;;;2347162;53;20959;-72
2022/06/04 02:49:18;;;;;;;2.95;1.85;;;21.10;54.30;;;;;;2346466;53;20995;-72
2022/06/04 02:51:49;;;;;;;2.95;1.73;;;21.10;54.50;;;;;;2341048;53;21008;-71
2022/06/04 02:54:27;;;;;;;3.10;2.10;;;21.20;54.50;;;;;;2341963;53;21027;-72
2022/06/04 02:56:54;;;;;;;3.30;1.98;;;21.20;54.70;;;;;;2350565;53;21791;-72
2022/06/04 02:59:20;;;;;;;3.40;2.40;;;21.10;54.40;;;;;;2342376;53;21059;-72
2022/06/04 03:01:48;;;;;;;3.78;2.30;;;21.10;54.60;;;;;;2349277;53;20999;-73
2022/06/04 03:04:14;;;;;;;3.58;2.40;;;21.10;54.70;;;;;;2348711;53;21053;-71
2022/06/04 03:06:41;;;;;;;4.62;2.42;;;21.20;54.80;;;;;;2340870;53;20947;-73
2022/06/04 03:09:09;;;;;;;3.40;2.45;;;21.20;55.00;;;;;;2341142;54;20948;-71
2022/06/04 03:11:43;;;;;;;3.75;2.75;;;21.20;55.10;;;;;;2529965;53;21016;-72
2022/06/04 03:14:14;;;;;;;3.47;2.22;;;21.20;55.40;;;;;;2340911;54;20936;-70
2022/06/04 03:16:42;;;;;;;4.30;2.85;;;21.20;55.30;;;;;;2341209;54;20947;-72
2022/06/04 03:19:09;;;;;;;4.37;2.78;;;21.20;55.50;;;;;;2367335;53;20932;-72
2022/06/04 03:21:39;;;;;;;3.28;2.10;;;21.20;55.60;;;;;;2582373;53;20988;-72
2022/06/04 03:24:06;;;;;;;3.10;1.98;;;21.30;55.70;;;;;;2586841;53;21508;-71
2022/06/04 03:26:33;;;;;;;5.68;2.53;;;21.30;55.60;;;;;;2340770;54;20932;-71
2022/06/04 03:28:59;;;;;;;3.80;2.72;;;21.30;55.60;;;;;;2341656;53;21875;-71
2022/06/04 03:31:26;;;;;;;3.20;2.50;;;21.30;55.60;;;;;;2346854;53;20908;-72
2022/06/04 03:33:53;;;;;;;3.92;2.40;;;21.30;55.60;;;;;;2343168;53;20920;-74
2022/06/04 03:36:21;;;;;;;4.05;2.37;;;21.40;55.70;;;;;;2335508;54;21035;-72
2022/06/04 03:38:48;;;;;;;3.58;2.45;;;21.30;55.60;;;;;;2341412;54;20984;-72
2022/06/04 03:41:14;;;;;;;4.57;2.50;;;21.40;55.70;;;;;;2345317;53;20982;-70
2022/06/04 03:43:46;;;;;;;3.35;2.33;;;21.40;55.70;;;;;;2346856;53;20970;-73
2022/06/04 03:46:13;;;;;;;3.42;2.22;;;21.40;55.80;;;;;;2342633;53;20996;-72
2022/06/04 03:48:40;;;;;;;4.00;2.33;;;21.50;55.80;;;;;;2341061;53;21495;-72
2022/06/04 03:51:06;;;;;;;4.35;2.55;;;21.50;55.90;;;;;;2341588;54;20992;-72
2022/06/04 03:53:33;;;;;;;4.57;2.40;;;21.50;56.00;;;;;;2362457;53;20931;-71
2022/06/04 03:55:59;;;;;;;3.92;2.55;;;21.50;56.00;;;;;;2346308;53;20994;-74
2022/06/04 03:58:30;;;;;;;4.62;2.60;;;21.60;56.10;;;;;;2587694;53;21015;-71
2022/06/04 04:00:57;;;;;;;4.00;2.60;;;21.50;56.00;;;;;;2341618;54;20968;-72
2022/06/04 04:03:24;;;;;;;4.10;2.80;;;21.60;56.10;;;;;;2341208;54;20952;-73
2022/06/04 04:05:52;;;;;;;3.83;2.55;;;21.60;56.20;;;;;;2341403;54;20959;-73
2022/06/04 04:08:19;;;;;;;3.97;2.58;;;21.60;56.20;;;;;;2342434;53;21448;-72
2022/06/04 04:10:45;;;;;;;4.37;2.78;;;21.60;56.30;;;;;;2341581;54;21020;-71
2022/06/04 04:13:13;;;;;;;3.80;2.78;;;21.60;56.30;;;;;;2408559;53;21510;-72
2022/06/04 04:15:40;;;;;;;4.32;2.72;;;21.70;56.50;;;;;;2346437;53;20993;-72
2022/06/04 04:18:06;;;;;;;5.00;2.90;;;21.70;56.60;;;;;;2341959;53;21678;-71
2022/06/04 04:20:34;;;;;;;5.72;3.15;;;21.70;56.60;;;;;;2341035;54;20999;-71
2022/06/04 04:23:00;;;;;;;4.30;3.20;;;21.70;56.70;;;;;;2340122;53;20980;-72
2022/06/04 04:25:29;;;;;;;5.25;3.35;;;21.80;56.80;;;;;;2587263;53;20948;-71
2022/06/04 04:27:56;;;;;;;4.53;3.10;;;21.80;56.90;;;;;;2341530;54;20908;-71
2022/06/04 04:30:24;;;;;;;4.60;3.28;;;21.80;56.80;;;;;;2465890;53;21071;-72
2022/06/04 04:32:51;;;;;;;4.57;3.22;;;21.80;56.90;;;;;;2588944;53;20999;-71
2022/06/04 04:35:19;;;;;;;4.85;3.17;;;21.80;56.90;;;;;;2343179;53;20960;-72
2022/06/04 04:37:45;;;;;;;4.90;3.17;;;21.90;57.00;;;;;;2341220;54;20983;-72
2022/06/04 04:40:15;;;;;;;4.57;3.45;;;21.90;57.00;;;;;;2405194;53;20929;-71
2022/06/04 04:42:42;;;;;;;5.07;3.85;;;21.80;56.90;;;;;;2341621;54;21445;-72
2022/06/04 04:45:08;;;;;;;5.20;3.60;;;21.90;57.70;;;;;;2587028;53;21016;-72
2022/06/04 04:47:35;;;;;;;6.78;4.10;;;21.90;57.20;;;;;;2339664;53;20963;-72
2022/06/04 04:50:03;;;;;;;5.70;4.32;;;22.00;57.30;;;;;;2345665;53;20986;-70
2022/06/04 04:52:30;;;;;;;6.45;4.65;;;21.90;57.40;;;;;;2341827;54;21043;-71
2022/06/04 04:54:56;;;;;;;6.03;4.72;;;22.00;57.50;;;;;;2341769;54;20923;-70
2022/06/04 04:57:22;;;;;;;5.65;4.50;;;22.00;57.60;;;;;;2362128;53;21441;-69
2022/06/04 04:59:48;;;;;;;4.62;3.70;;;22.00;57.70;;;;;;2425598;53;20940;-70
2022/06/04 05:02:15;;;;;;;5.22;4.28;;;22.00;57.70;;;;;;2341367;54;20920;-70
2022/06/04 05:04:41;;;;;;;6.45;3.95;;;22.00;57.80;;;;;;2341051;54;21007;-71
2022/06/04 05:07:11;;;;;;;4.35;3.50;;;22.10;57.90;;;;;;2495124;53;20987;-71
2022/06/04 05:09:39;;;;;;;4.55;3.50;;;22.10;57.90;;;;;;2338980;53;21905;-70
2022/06/04 05:12:09;;;;;;;4.97;3.65;;;22.10;57.90;;;;;;2587246;53;20912;-71
2022/06/04 05:14:36;;;;;;;4.18;3.00;;;22.10;58.00;;;;;;2350537;53;21381;-70
2022/06/04 05:17:02;;;;;;;5.87;3.22;;;22.20;58.00;;;;;;2343976;53;20995;-71
2022/06/04 05:19:28;;;;;;;5.35;3.42;;;22.20;57.90;;;;;;2345702;53;21066;-70
2022/06/04 05:21:55;;;;;;;5.95;3.58;;;22.20;57.90;;;;;;2343133;53;20940;-71
2022/06/04 05:24:25;;;;;;;5.10;3.00;;;22.20;58.00;;;;;;2564195;53;20955;-72
2022/06/04 05:26:52;;;;;;;5.57;3.50;;;22.30;58.20;;;;;;2341563;54;20932;-71
2022/06/04 05:29:19;;;;;;;5.03;3.65;;;22.30;58.10;;;;;;2340968;54;21087;-71
2022/06/04 05:31:45;;;;;;;4.20;3.28;;;22.30;58.20;;;;;;2425491;53;20983;-72
2022/06/04 05:34:12;;;;;;;5.10;3.50;;;22.30;58.10;;;;;;2348029;53;20951;-71
2022/06/04 05:36:39;;;;;;;4.70;3.20;;;22.40;58.20;;;;;;2342062;53;20949;-71
2022/06/04 05:39:05;;;;;;;4.72;3.40;;;22.40;58.30;;;;;;2586217;53;21569;-72
2022/06/04 05:41:32;;;;;;;4.70;3.65;;;22.40;58.20;;;;;;2481595;53;21583;-70
2022/06/04 05:43:58;;;;;;;5.28;4.15;;;22.40;58.20;;;;;;2341242;54;20939;-71
2022/06/04 05:46:25;;;;;;;4.75;3.40;;;22.40;58.40;;;;;;2351370;53;21062;-71
2022/06/04 05:48:51;;;;;;;4.53;3.12;;;22.40;58.40;;;;;;2352892;53;20951;-72
2022/06/04 05:51:24;;;;;;;4.18;2.92;;;22.40;58.40;;;;;;2342545;54;20948;-73
2022/06/04 05:53:51;;;;;;;4.05;3.08;;;22.40;58.50;;;;;;2350421;53;20995;-71
2022/06/04 05:56:22;;;;;;;4.82;3.05;;;22.40;58.40;;;;;;2348065;53;20939;-72
2022/06/04 05:58:50;;;;;;;4.82;3.08;;;22.40;58.70;;;;;;2361156;53;21007;-71
2022/06/04 06:01:18;;;;;;;4.40;2.92;;;22.50;58.60;;;;;;2341971;53;20927;-71
2022/06/04 06:03:44;;;;;;;4.18;3.12;;;22.50;58.60;;;;;;2351072;53;21003;-72
2022/06/04 06:06:12;;;;;;;4.60;2.95;;;22.50;58.70;;;;;;2589139;53;20956;-71
2022/06/04 06:08:55;;;;;;;4.07;2.87;;;22.60;58.80;;;;;;2341481;54;20988;-70
2022/06/04 06:11:21;;;;;;;4.65;3.03;;;22.60;58.70;;;;;;2340824;54;21397;-71
2022/06/04 06:13:49;;;;;;;5.62;3.53;;;22.60;58.70;;;;;;2345828;53;20986;-72
2022/06/04 06:17:01;;;;;;;4.62;3.42;;;22.70;58.90;;;;;;2341890;53;20948;-71
2022/06/04 06:19:31;;;;;;;4.30;3.30;;;22.70;59.50;;;;;;2346155;53;21038;-71
2022/06/04 06:21:57;;;;;;;4.47;3.17;;;22.70;58.70;;;;;;2587430;53;20976;-72
2022/06/04 06:24:24;;;;;;;16.08;3.97;;;22.80;58.80;;;;;;2349947;53;20986;-72
2022/06/04 06:26:55;;;;;;;3.90;2.83;;;22.80;58.90;;;;;;2342160;53;21019;-71
2022/06/04 06:29:23;;;;;;;4.18;3.15;;;22.80;59.00;;;;;;2345607;53;20951;-72
2022/06/04 06:31:49;;;;;;;3.87;3.22;;;22.80;59.00;;;;;;2342538;53;20960;-72
2022/06/04 06:34:17;;;;;;;4.80;2.78;;;22.90;59.10;;;;;;2587212;53;20979;-72
2022/06/04 06:36:44;;;;;;;5.43;3.20;;;22.90;59.20;;;;;;2539829;53;20957;-71
2022/06/04 06:39:13;;;;;;;4.60;3.05;;;22.90;59.20;;;;;;2341148;54;20984;-71
2022/06/04 06:41:39;;;;;;;4.40;3.30;;;22.90;59.20;;;;;;2347046;53;20947;-72
2022/06/04 06:44:05;;;;;;;4.15;3.05;;;23.00;59.30;;;;;;2340100;54;20948;-73
2022/06/04 06:46:37;;;;;;;5.37;3.87;;;23.10;59.30;;;;;;2345405;53;20999;-73
2022/06/04 06:49:11;;;;;;;4.80;3.33;;;23.10;59.60;;;;;;2350105;53;21014;-73
2022/06/04 06:51:41;;;;;;;4.75;3.17;;;23.10;59.70;;;;;;2346951;53;21427;-73
2022/06/04 06:54:08;;;;;;;7.60;4.12;;;23.20;59.60;;;;;;2405601;53;21461;-74
2022/06/04 06:56:36;;;;;;;5.00;3.30;;;23.20;59.60;;;;;;2341309;54;21079;-72
2022/06/04 06:59:03;;;;;;;5.53;3.75;;;23.30;59.70;;;;;;2356472;53;21479;-71
2022/06/04 07:01:31;;;;;;;4.12;3.03;;;23.30;59.80;;;;;;2344168;53;20956;-74
2022/06/04 07:04:01;;;;;;;4.47;3.45;;;23.40;60.00;;;;;;2342838;54;20936;-73
2022/06/04 07:06:41;;;;;;;5.50;3.42;;;23.40;59.90;;;;;;2349958;53;21916;-73
2022/06/04 07:09:12;;;;;;;4.72;3.17;;;23.50;60.30;;;;;;2347548;53;20919;-74
2022/06/04 07:11:39;;;;;;;5.72;3.50;;;23.60;60.20;;;;;;2341645;53;21008;-71
2022/06/04 07:14:05;;;;;;;4.68;3.65;;;23.60;60.00;;;;;;2341651;54;20967;-76
2022/06/04 07:16:34;;;;;;;4.50;3.00;;;23.70;60.00;;;;;;2345346;54;21027;-73
2022/06/04 07:19:00;;;;;;;5.00;3.22;;;23.80;60.10;;;;;;2343191;53;20980;-74
2022/06/04 07:21:27;;;;;;;3.75;2.80;;;23.80;60.00;;;;;;2342103;53;21524;-74
2022/06/04 07:23:53;;;;;;;4.12;2.37;;;23.90;60.10;;;;;;2386966;53;20980;-73
2022/06/04 07:26:20;;;;;;;5.87;3.17;;;23.90;60.00;;;;;;2347245;53;21686;-73
2022/06/04 07:28:46;;;;;;;4.50;2.67;;;24.00;60.10;;;;;;2345665;53;20928;-73
2022/06/04 07:31:13;;;;;;;4.47;2.78;;;24.10;60.10;;;;;;2343193;53;20956;-73
2022/06/04 07:33:42;;;;;;;5.12;3.08;;;24.20;60.00;;;;;;2342426;53;21869;-73
2022/06/04 07:36:11;;;;;;;4.55;2.90;;;24.30;60.10;;;;;;2341838;54;20928;-75
2022/06/04 07:38:40;;;;;;;4.57;2.95;;;24.30;59.80;;;;;;2340535;53;20967;-74
2022/06/04 07:41:07;;;;;;;5.35;3.97;;;24.40;60.00;;;;;;2358153;53;20943;-74
2022/06/04 07:43:33;;;;;;;5.47;3.72;;;24.50;60.00;;;;;;2345582;53;21076;-76
2022/06/04 07:45:59;;;;;;;5.40;3.97;;;24.50;60.00;;;;;;2343292;53;20991;-74
2022/06/04 07:48:26;;;;;;;5.20;3.78;;;24.60;60.00;;;;;;2343285;53;20968;-73
2022/06/04 07:50:57;;;;;;;5.50;3.87;;;24.70;59.90;;;;;;2341576;54;21829;-75
2022/06/04 07:53:27;;;;;;;5.45;3.53;;;24.70;59.80;;;;;;2350855;53;20980;-73
2022/06/04 07:55:53;;;;;;;4.10;3.25;;;24.80;59.80;;;;;;2349151;53;20912;-72
2022/06/04 07:58:24;;;;;;;4.20;2.72;;;24.80;59.60;;;;;;2341517;53;21434;-73
2022/06/04 08:00:57;;;;;;;4.47;3.00;;;24.90;59.50;;;;;;2341674;54;21491;-72
2022/06/04 08:03:25;;;;;;;4.12;2.90;;;24.90;59.50;;;;;;2341138;54;21397;-72
2022/06/04 08:05:52;;;;;;;4.18;3.20;;;24.90;59.30;;;;;;2341510;54;20955;-73
2022/06/04 08:08:18;;;;;;;4.97;3.53;;;25.00;59.30;;;;;;2354606;53;20947;-75
2022/06/04 08:10:48;;;;;;;4.85;3.47;;;25.00;59.10;;;;;;2347983;53;20979;-73
2022/06/04 08:13:30;;;;;;;4.97;3.72;;;25.00;59.20;;;;;;2342668;53;20993;-72
2022/06/04 08:16:00;;;;;;;4.90;3.47;;;25.00;59.10;;;;;;2341858;53;21048;-72
2022/06/04 08:18:27;;;;;;;4.82;3.67;;;25.00;58.90;;;;;;2340684;54;20920;-73
2022/06/04 08:20:53;;;;;;;6.50;4.65;;;25.00;58.80;;;;;;2340834;53;20995;-73
2022/06/04 08:23:22;;;;;;;5.28;4.37;;;25.00;58.60;;;;;;2341091;54;21028;-73
2022/06/04 08:25:50;;;;;;;6.12;4.55;;;25.00;58.50;;;;;;2589673;53;20919;-70
2022/06/04 08:28:16;;;;;;;6.00;4.93;;;25.00;58.50;;;;;;2341796;53;21474;-70
2022/06/04 08:30:43;;;;;;;6.03;4.43;;;24.90;58.40;;;;;;2347210;53;20915;-70
2022/06/04 08:33:09;;;;;;;7.45;5.40;;;24.90;58.30;;;;;;2341821;53;20952;-70
2022/06/04 08:35:36;;;;;;;6.97;4.62;;;24.90;58.40;;;;;;2341052;53;20951;-71
2022/06/04 08:38:05;;;;;;;5.90;4.32;;;24.90;58.50;;;;;;2341227;54;21079;-71
2022/06/04 08:40:36;;;;;;;6.00;4.95;;;24.80;58.40;;;;;;2341621;54;20932;-71
2022/06/04 08:46:49;;;;;;;6.70;5.03;;;24.80;58.40;;;;;;2392784;53;21019;-71
2022/06/04 08:49:29;;;;;;;5.45;4.20;;;24.80;58.50;;;;;;2355413;53;21357;-71
2022/06/04 08:51:56;;;;;;;5.93;4.55;;;24.80;58.20;;;;;;2357817;53;21007;-70
2022/06/04 09:00:23;;;;;;;6.43;4.53;;;24.70;58.30;;;;;;2393490;53;20960;-70
2022/06/04 09:05:33;;;;;;;5.68;4.57;;;24.60;58.40;;;;;;2341239;54;20960;-71
2022/06/04 09:08:05;;;;;;;5.03;3.75;;;24.60;58.60;;;;;;2341534;54;21043;-71
2022/06/04 09:10:48;;;;;;;6.05;4.32;;;24.60;58.50;;;;;;2585894;53;20917;-71
2022/06/04 09:15:53;;;;;;;5.50;4.72;;;24.60;59.30;;;;;;2587363;53;21641;-70
2022/06/04 09:18:34;;;;;;;5.75;4.37;;;24.60;59.30;;;;;;2341829;53;20987;-70
2022/06/04 09:21:03;;;;;;;5.03;3.80;;;24.70;59.20;;;;;;2341197;54;20936;-71
2022/06/04 09:23:43;;;;;;;5.57;4.40;;;24.80;59.40;;;;;;2340498;54;21048;-72
2022/06/04 09:26:27;;;;;;;5.18;4.12;;;24.80;59.50;;;;;;2341565;54;20904;-70
2022/06/04 09:30:48;;;;;;;4.75;3.97;;;24.90;59.80;;;;;;2570333;53;20977;-71
2022/06/04 09:34:50;;;;;;;5.85;4.87;;;25.00;59.60;;;;;;2340403;53;20924;-70
2022/06/04 09:37:16;;;;;;;5.12;4.18;;;25.10;59.20;;;;;;2341688;53;21063;-71
2022/06/04 09:39:45;;;;;;;6.12;4.70;;;25.20;59.00;;;;;;2345070;53;20954;-72
2022/06/04 09:42:22;;;;;;;6.12;4.75;;;25.20;59.10;;;;;;2348034;53;21006;-71
2022/06/04 09:45:00;;;;;;;5.43;4.50;;;25.30;59.30;;;;;;2325673;54;21016;-71
2022/06/04 09:47:42;;;;;;;6.65;4.68;;;25.40;59.20;;;;;;2347312;53;20931;-71
2022/06/04 09:56:58;;;;;;;6.32;4.65;;;25.50;59.80;;;;;;2344149;53;21111;-72
2022/06/04 09:59:28;;;;;;;5.22;3.80;;;25.80;58.90;;;;;;2350205;53;20927;-72
2022/06/04 10:02:21;;;;;;;5.37;4.10;;;25.80;58.50;;;;;;2345230;53;21010;-70
2022/06/04 10:04:49;;;;;;;8.50;4.78;;;25.90;58.50;;;;;;2342228;53;20967;-70
2022/06/04 10:07:20;;;;;;;6.78;4.97;;;25.90;58.40;;;;;;2586809;53;20968;-71
2022/06/04 10:09:57;;;;;;;5.82;4.20;;;26.00;58.40;;;;;;2341856;54;21920;-72
2022/06/04 10:15:50;;;;;;;5.97;4.37;;;26.10;58.30;;;;;;2340661;54;20927;-70
2022/06/04 10:18:22;;;;;;;4.82;3.60;;;26.10;58.20;;;;;;2340377;54;21039;-72
2022/06/04 10:21:20;;;;;;;5.93;4.25;;;26.20;58.20;;;;;;2341331;54;20944;-72
2022/06/04 10:23:48;;;;;;;4.25;3.58;;;26.20;57.80;;;;;;2343145;53;20963;-70
2022/06/04 10:26:32;;;;;;;5.00;3.92;;;26.20;57.80;;;;;;2348025;53;21843;-70
2022/06/04 10:29:17;;;;;;;4.45;3.33;;;26.30;58.00;;;;;;2349879;53;21444;-71
2022/06/04 10:32:35;;;;;;;5.00;3.58;;;26.30;58.20;;;;;;2342126;53;20983;-71
2022/06/04 10:35:56;;;;;;;5.32;3.53;;;26.40;58.00;;;;;;2423707;53;21083;-71
2022/06/04 10:38:51;;;;;;;3.25;2.55;;;26.50;57.70;;;;;;2340761;54;21000;-70
2022/06/04 10:41:42;;;;;;;3.90;2.78;;;26.60;57.70;;;;;;2541541;53;20968;-71
2022/06/04 10:44:41;;;;;;;5.12;3.47;;;26.60;57.70;;;;;;2341296;54;20991;-71
2022/06/04 10:48:55;;;;;;;4.72;2.95;;;26.70;57.60;;;;;;2341569;54;20936;-72
2022/06/04 11:04:46;;;;;;;4.07;2.65;;;26.80;57.30;;;;;;2341559;54;21405;-71
2022/06/04 11:09:54;;;;;;;4.62;3.40;;;26.90;57.50;;;;;;2329658;52;23581;-71
2022/06/04 11:12:45;;;;;;;4.30;2.87;;;27.40;57.50;;;;;;2314666;53;20992;-71
2022/06/04 11:15:28;;;;;;;4.82;3.53;;;27.40;57.40;;;;;;2297698;53;21010;-71
2022/06/04 11:19:37;;;;;;;4.20;2.97;;;27.50;56.90;;;;;;2318730;54;20965;-70
2022/06/04 11:23:35;;;;;;;5.15;2.70;;;27.60;57.00;;;;;;2470280;53;20970;-72
2022/06/04 11:26:24;;;;;;;3.90;2.42;;;27.60;56.60;;;;;;2331021;54;21468;-70
2022/06/04 11:28:54;;;;;;;3.72;2.65;;;27.70;56.50;;;;;;2552790;53;21565;-73
2022/06/04 11:31:40;;;;;;;3.70;2.70;;;27.80;56.50;;;;;;2313233;54;21498;-74
2022/06/04 11:35:23;;;;;;;3.33;2.08;;;27.80;56.40;;;;;;2313397;54;20997;-72
2022/06/04 11:41:11;;;;;;;2.92;1.90;;;27.90;56.50;;;;;;2313310;54;20994;-70
2022/06/04 11:47:04;;;;;;;3.80;2.17;;;27.90;56.20;;;;;;2330535;54;20916;-71
2022/06/04 11:51:01;;;;;;;4.05;1.90;;;28.10;55.70;;;;;;2313057;53;20974;-71
2022/06/04 11:56:10;;;;;;;3.22;2.12;;;28.10;55.60;;;;;;2354671;53;21512;-74
2022/06/04 11:59:03;;;;;;;3.60;2.47;;;28.20;55.70;;;;;;2553165;53;21019;-72
2022/06/04 12:01:40;;;;;;;3.22;2.17;;;28.20;55.60;;;;;;2345482;53;20926;-72
2022/06/04 12:04:37;;;;;;;4.10;2.25;;;28.20;55.00;;;;;;2313453;53;20934;-73
2022/06/04 12:07:13;;;;;;;3.67;1.98;;;28.20;54.70;;;;;;2313362;54;21038;-73
2022/06/04 12:09:56;;;;;;;3.62;2.03;;;28.20;54.50;;;;;;2313306;54;20973;-73
2022/06/04 12:12:25;;;;;;;3.65;2.03;;;28.20;54.20;;;;;;2315262;54;20992;-72
2022/06/04 12:16:42;;;;;;;4.82;2.35;;;28.20;54.60;;;;;;2318526;55;20984;-72
2022/06/04 12:25:17;;;;;;;3.05;2.10;;;28.30;54.10;;;;;;2334451;54;21060;-72
2022/06/04 12:28:00;;;;;;;2.90;2.00;;;28.30;54.00;;;;;;2334393;55;21032;-73
2022/06/04 12:30:47;;;;;;;3.28;1.67;;;28.40;53.50;;;;;;2308275;54;20991;-73
2022/06/04 12:33:32;;;;;;;4.90;1.98;;;28.40;53.30;;;;;;2308233;54;20955;-73
2022/06/04 12:36:09;;;;;;;3.78;1.83;;;28.40;53.70;;;;;;2307859;54;20963;-72
2022/06/04 12:38:38;;;;;;;3.08;1.50;;;28.40;53.40;;;;;;2307821;54;20958;-72
2022/06/04 12:41:19;;;;;;;4.22;1.65;;;28.50;53.70;;;;;;2546101;53;20955;-72
2022/06/04 12:43:58;;;;;;;2.70;1.60;;;28.40;53.60;;;;;;2419266;53;20927;-73
2022/06/04 12:46:34;;;;;;;2.40;1.42;;;28.60;53.60;;;;;;2284043;53;21059;-71
2022/06/04 12:51:40;;;;;;;3.10;1.40;;;28.60;53.00;;;;;;2414477;54;20954;-72
2022/06/04 12:55:59;;;;;;;2.58;1.27;;;28.70;53.50;;;;;;2306262;53;21008;-71
2022/06/04 12:58:51;;;;;;;2.80;1.00;;;28.80;52.80;;;;;;2568875;53;20947;-72
2022/06/04 13:01:38;;;;;;;2.25;1.00;;;28.90;52.00;;;;;;2411312;53;20983;-73
2022/06/04 13:04:39;;;;;;;3.05;1.05;;;28.90;51.50;;;;;;2339290;54;21407;-73
2022/06/04 13:07:22;;;;;;;2.47;1.35;;;28.90;51.90;;;;;;2339839;54;21403;-74
2022/06/04 13:10:18;;;;;;;5.62;1.33;;;29.00;51.80;;;;;;2401085;53;21015;-74
2022/06/04 13:12:51;;;;;;;2.25;0.80;;;29.00;51.90;;;;;;2585248;53;20931;-75
2022/06/04 13:16:09;;;;;;;2.25;1.10;;;29.10;52.00;;;;;;2338686;54;21042;-74
2022/06/04 13:18:37;;;;;;;2.55;1.30;;;29.10;51.70;;;;;;2584761;53;21070;-72
2022/06/04 13:21:10;;;;;;;3.37;1.20;;;29.20;51.40;;;;;;2339553;54;21462;-74
2022/06/04 13:23:41;;;;;;;2.95;1.15;;;29.20;51.10;;;;;;2342493;54;21024;-73
2022/06/04 13:26:31;;;;;;;3.72;1.35;;;29.30;50.90;;;;;;2338535;53;20938;-73
2022/06/04 13:28:58;;;;;;;1.80;0.95;;;29.30;50.40;;;;;;2342217;54;20928;-71
2022/06/04 13:31:29;;;;;;;2.00;0.98;;;29.40;50.70;;;;;;2340101;54;21081;-71
2022/06/04 13:34:11;;;;;;;2.00;0.90;;;29.40;50.20;;;;;;2339999;54;20970;-72
2022/06/04 13:36:38;;;;;;;3.72;1.08;;;29.40;50.30;;;;;;2585551;53;20950;-73
2022/06/04 13:39:10;;;;;;;3.15;1.25;;;29.50;50.10;;;;;;2341762;54;21235;-73
2022/06/04 13:44:42;;;;;;;2.30;1.12;;;29.60;49.80;;;;;;2338446;53;21094;-71
2022/06/04 13:47:16;;;;;;;1.85;0.95;;;29.70;49.50;;;;;;2584155;53;21031;-72
2022/06/04 13:49:48;;;;;;;2.22;1.02;;;29.80;48.90;;;;;;2339532;54;20957;-73
2022/06/04 13:52:27;;;;;;;2.58;1.05;;;29.80;48.60;;;;;;2434383;53;21403;-71
2022/06/04 13:54:56;;;;;;;2.25;0.90;;;29.90;48.50;;;;;;2506866;53;20965;-72
2022/06/04 13:57:35;;;;;;;2.10;0.80;;;29.90;48.30;;;;;;2341737;54;20955;-73
2022/06/04 14:00:17;;;;;;;2.95;1.00;;;30.00;47.80;;;;;;2327483;53;21662;-72
2022/06/04 14:02:46;;;;;;;2.17;0.80;;;30.00;47.90;;;;;;2456224;53;20999;-72
2022/06/04 14:08:06;;;;;;;2.00;0.90;;;30.10;47.60;;;;;;2338606;54;21014;-72
2022/06/04 14:10:32;;;;;;;2.33;0.90;;;30.10;47.60;;;;;;2338614;54;20985;-73
2022/06/04 14:16:42;;;;;;;3.00;0.88;;;30.20;47.60;;;;;;2338808;54;20948;-73
2022/06/04 14:20:05;;;;;;;1.83;0.70;;;30.20;47.20;;;;;;2339624;54;21588;-73
2022/06/04 14:25:57;;;;;;;3.15;1.20;;;30.30;47.00;;;;;;2562161;53;21004;-72
2022/06/04 14:28:40;;;;;;;2.00;0.80;;;30.40;47.10;;;;;;2337641;54;20926;-71
2022/06/04 14:33:16;;;;;;;4.53;1.10;;;30.40;46.50;;;;;;2331111;54;21003;-72
2022/06/04 14:35:42;;;;;;;1.92;0.95;;;30.40;45.80;;;;;;2341330;54;20990;-73
2022/06/04 14:38:16;;;;;;;1.90;0.77;;;30.40;46.50;;;;;;2341329;53;21028;-73
2022/06/04 14:41:06;;;;;;;3.40;1.00;;;30.50;45.90;;;;;;2338101;54;21132;-72
2022/06/04 14:45:18;;;;;;;2.35;0.90;;;30.40;45.40;;;;;;2583434;53;21764;-74
2022/06/04 14:50:30;;;;;;;1.62;0.77;;;30.50;45.80;;;;;;2339773;54;21006;-73
2022/06/04 14:52:59;;;;;;;2.00;0.93;;;30.60;46.20;;;;;;2339596;54;20998;-73
2022/06/04 14:55:36;;;;;;;2.85;0.93;;;30.70;46.10;;;;;;2339428;54;20938;-73
2022/06/04 14:59:00;;;;;;;2.50;1.33;;;30.70;45.50;;;;;;2339014;54;20979;-72
2022/06/04 15:02:03;;;;;;;2.10;1.00;;;30.70;45.30;;;;;;2343073;54;21022;-73
2022/06/04 15:05:01;;;;;;;2.83;0.95;;;30.70;45.40;;;;;;2331621;53;20943;-73
2022/06/04 15:11:57;;;;;;;1.75;0.85;;;30.80;45.00;;;;;;2339924;54;20942;-71
2022/06/04 15:21:13;;;;;;;2.03;0.60;;;30.80;45.10;;;;;;2316365;54;21007;-73
2022/06/04 15:26:29;;;;;;;1.53;0.90;;;30.90;44.90;;;;;;2342702;54;21436;-73